createdAt,value
2022-11-24T00:00:15.388Z,30.277
2022-11-24T00:05:15.381Z,30.281
2022-11-24T00:10:15.393Z,30.282
2022-11-24T00:15:15.390Z,30.282
2022-11-24T00:20:15.412Z,30.289
2022-11-24T00:25:15.469Z,30.290
2022-11-24T00:30:15.416Z,30.292
2022-11-24T00:35:15.482Z,30.294
2022-11-24T00:40:15.628Z,30.298
2022-11-24T00:45:15.483Z,30.298
2022-11-24T00:50:15.514Z,30.299
2022-11-24T00:55:15.524Z,30.301
2022-11-24T01:00:15.509Z,30.300
2022-11-24T01:05:15.456Z,30.303
2022-11-24T01:10:15.520Z,30.307
2022-11-24T01:15:15.575Z,30.304
2022-11-24T01:20:15.694Z,30.304
2022-11-24T01:25:15.554Z,30.311
2022-11-24T01:30:15.612Z,30.312
2022-11-24T01:35:15.623Z,30.320
2022-11-24T01:40:15.764Z,30.322
2022-11-24T01:45:15.748Z,30.321
2022-11-24T01:50:15.769Z,30.323
2022-11-24T01:55:15.539Z,30.325
2022-11-24T02:00:15.753Z,30.330
2022-11-24T02:05:15.594Z,30.330
2022-11-24T02:10:15.668Z,30.330
2022-11-24T02:15:15.696Z,30.333
2022-11-24T02:20:15.682Z,30.336
2022-11-24T02:25:15.766Z,30.336
2022-11-24T02:30:15.692Z,30.339
2022-11-24T02:35:15.821Z,30.338
2022-11-24T02:40:15.975Z,30.339
2022-11-24T02:45:15.694Z,30.337
2022-11-24T02:50:15.968Z,30.335
2022-11-24T02:55:16.922Z,30.338
2022-11-24T03:00:16.783Z,30.336
2022-11-24T03:05:16.886Z,30.336
2022-11-24T03:10:16.821Z,30.335
2022-11-24T03:15:16.784Z,30.333
2022-11-24T03:20:16.975Z,30.331
2022-11-24T03:25:16.871Z,30.332
2022-11-24T03:30:16.858Z,30.336
2022-11-24T03:35:16.833Z,30.341
2022-11-24T03:40:16.824Z,30.342
2022-11-24T03:45:44.328Z,30.344
2022-11-24T03:50:16.896Z,30.346
2022-11-24T03:55:16.861Z,30.349
2022-11-24T04:00:16.956Z,30.347
2022-11-24T04:05:16.936Z,30.351
2022-11-24T04:10:16.922Z,30.354
2022-11-24T04:15:17.078Z,30.354
2022-11-24T04:20:16.949Z,30.355
2022-11-24T04:25:17.018Z,30.356
2022-11-24T04:30:16.959Z,30.357
2022-11-24T04:35:16.994Z,30.360
2022-11-24T04:40:17.097Z,30.362
2022-11-24T04:45:17.100Z,30.363
2022-11-24T04:50:17.131Z,30.365
2022-11-24T04:55:17.082Z,30.369
2022-11-24T05:00:16.018Z,30.372
2022-11-24T05:05:16.073Z,30.367
2022-11-24T05:10:16.058Z,30.374
2022-11-24T05:15:16.085Z,30.377
2022-11-24T05:20:16.087Z,30.377
2022-11-24T05:25:16.144Z,30.373
2022-11-24T05:30:16.178Z,30.378
2022-11-24T05:35:16.216Z,30.379
2022-11-24T05:40:16.167Z,30.380
2022-11-24T05:45:16.149Z,30.380
2022-11-24T05:50:16.200Z,30.381
2022-11-24T05:55:16.113Z,30.383
2022-11-24T06:00:16.162Z,30.385
2022-11-24T06:05:16.187Z,30.386
2022-11-24T06:10:16.123Z,30.386
2022-11-24T06:15:16.374Z,30.387
2022-11-24T06:20:16.265Z,30.390
2022-11-24T06:25:16.253Z,30.390
2022-11-24T06:30:16.230Z,30.391
2022-11-24T06:35:16.308Z,30.393
2022-11-24T06:40:16.327Z,30.393
2022-11-24T06:45:16.501Z,30.394
2022-11-24T06:50:16.367Z,30.397
2022-11-24T06:55:17.911Z,30.401
2022-11-24T07:00:17.357Z,30.401
2022-11-24T07:05:17.363Z,30.397
2022-11-24T07:10:17.331Z,30.401
2022-11-24T07:15:17.352Z,30.399
2022-11-24T07:20:17.495Z,30.399
2022-11-24T07:25:17.310Z,30.399
2022-11-24T07:30:15.611Z,30.400
2022-11-24T07:35:15.372Z,30.400
2022-11-24T07:40:15.519Z,30.402
2022-11-24T07:45:15.437Z,30.401
2022-11-24T07:50:15.528Z,30.399
2022-11-24T07:55:15.368Z,30.398
2022-11-24T08:00:15.409Z,30.396
2022-11-24T08:05:15.415Z,30.396
2022-11-24T08:10:15.467Z,30.398
2022-11-24T08:15:15.484Z,30.396
2022-11-24T08:20:15.697Z,30.399
2022-11-24T08:25:15.600Z,30.397
2022-11-24T08:30:15.525Z,30.395
2022-11-24T08:35:15.585Z,30.395
2022-11-24T08:40:15.610Z,30.398
2022-11-24T08:45:20.846Z,30.394
2022-11-24T08:50:15.614Z,30.396
2022-11-24T08:55:15.524Z,30.396
2022-11-24T09:00:15.579Z,30.395
2022-11-24T09:05:43.680Z,30.397
2022-11-24T09:10:15.608Z,30.397
2022-11-24T09:15:15.618Z,30.400
2022-11-24T09:20:15.580Z,30.399
2022-11-24T09:25:15.824Z,30.398
2022-11-24T09:30:15.774Z,30.403
2022-11-24T09:35:15.664Z,30.402
2022-11-24T09:40:15.726Z,30.405
2022-11-24T09:45:15.666Z,30.406
2022-11-24T09:50:15.721Z,30.404
2022-11-24T09:55:15.598Z,30.407
2022-11-24T10:00:15.959Z,30.409
2022-11-24T10:05:15.692Z,30.409
2022-11-24T10:10:21.180Z,30.407
2022-11-24T10:15:15.946Z,30.413
2022-11-24T10:20:15.749Z,30.414
2022-11-24T10:25:16.005Z,30.416
2022-11-24T10:30:15.950Z,30.414
2022-11-24T10:35:15.779Z,30.414
2022-11-24T10:40:33.372Z,30.417
2022-11-24T10:45:15.772Z,30.415
2022-11-24T10:50:15.931Z,30.414
2022-11-24T10:55:15.866Z,30.412
2022-11-24T11:00:15.946Z,30.415
2022-11-24T11:05:15.837Z,30.416
2022-11-24T11:10:15.943Z,30.417
2022-11-24T11:15:15.834Z,30.420
2022-11-24T11:20:15.928Z,30.421
2022-11-24T11:25:15.899Z,30.424
2022-11-24T11:31:27.026Z,30.423
2022-11-24T11:35:15.963Z,30.426
2022-11-24T11:40:15.938Z,30.426
2022-11-24T11:45:16.175Z,30.429
2022-11-24T11:50:16.017Z,30.425
2022-11-24T11:55:15.945Z,30.432
2022-11-24T12:00:16.126Z,30.433
2022-11-24T12:05:15.953Z,30.435
2022-11-24T12:10:16.117Z,30.434
2022-11-24T12:15:15.947Z,30.442
2022-11-24T12:20:15.971Z,30.443
2022-11-24T12:25:16.069Z,30.442
2022-11-24T12:30:16.039Z,30.445
2022-11-24T12:35:16.089Z,30.445
2022-11-24T12:40:16.107Z,30.444
2022-11-24T12:45:16.065Z,30.444
2022-11-24T12:50:16.043Z,30.445
2022-11-24T12:55:16.233Z,30.441
2022-11-24T13:00:16.089Z,30.442
2022-11-24T13:05:16.199Z,30.439
2022-11-24T13:10:16.126Z,30.441
2022-11-24T13:15:43.456Z,30.440
2022-11-24T13:20:16.106Z,30.440
2022-11-24T13:25:16.282Z,30.440
2022-11-24T13:30:16.187Z,30.442
2022-11-24T13:35:16.124Z,30.442
2022-11-24T13:40:16.210Z,30.439
2022-11-24T13:45:16.291Z,30.438
2022-11-24T13:50:16.676Z,30.438
2022-11-24T13:55:16.326Z,30.438
2022-11-24T14:00:16.281Z,30.436
2022-11-24T14:05:16.363Z,30.436
2022-11-24T14:10:16.331Z,30.437
2022-11-24T14:15:16.304Z,30.433
2022-11-24T14:20:16.249Z,30.434
2022-11-24T14:25:16.403Z,30.434
2022-11-24T14:30:16.328Z,30.428
2022-11-24T14:35:16.509Z,30.430
2022-11-24T14:40:16.266Z,30.427
2022-11-24T14:45:16.300Z,30.427
2022-11-24T14:50:16.504Z,30.427
2022-11-24T14:55:22.726Z,30.426
2022-11-24T15:00:16.535Z,30.427
2022-11-24T15:05:16.372Z,30.426
2022-11-24T15:10:16.366Z,30.424
2022-11-24T15:15:16.442Z,30.422
2022-11-24T15:20:16.486Z,30.419
2022-11-24T15:25:16.477Z,30.418
2022-11-24T15:30:16.471Z,30.415
2022-11-24T15:35:16.453Z,30.413
2022-11-24T15:40:16.469Z,30.409
2022-11-24T15:45:16.446Z,30.409
2022-11-24T15:50:16.608Z,30.404
2022-11-24T15:55:16.546Z,30.401
2022-11-24T16:00:16.516Z,30.397
2022-11-24T16:05:16.600Z,30.396
2022-11-24T16:10:16.530Z,30.395
2022-11-24T16:15:16.655Z,30.391
2022-11-24T16:20:16.536Z,30.390
2022-11-24T16:25:16.543Z,30.387
2022-11-24T16:30:16.585Z,30.384
2022-11-24T16:35:16.568Z,30.378
2022-11-24T16:40:16.597Z,30.378
2022-11-24T16:45:16.709Z,30.371
2022-11-24T16:50:16.618Z,30.367
2022-11-24T16:55:16.622Z,30.364
2022-11-24T17:00:16.677Z,30.365
2022-11-24T17:05:16.649Z,30.359
2022-11-24T17:10:16.643Z,30.357
2022-11-24T17:15:32.766Z,30.354
2022-11-24T17:20:16.855Z,30.349
2022-11-24T17:25:16.786Z,30.347
2022-11-24T17:30:16.768Z,30.347
2022-11-24T17:35:16.790Z,30.344
2022-11-24T17:40:32.137Z,30.342
2022-11-24T17:45:16.760Z,30.340
2022-11-24T17:50:20.131Z,30.336
2022-11-24T17:55:16.691Z,30.335
2022-11-24T18:00:16.803Z,30.336
2022-11-24T18:05:16.754Z,30.333
2022-11-24T18:10:16.828Z,30.333
2022-11-24T18:15:16.994Z,30.332
2022-11-24T18:20:17.197Z,30.329
2022-11-24T18:25:16.870Z,30.330
2022-11-24T18:30:16.937Z,30.330
2022-11-24T18:35:16.983Z,30.327
2022-11-24T18:40:16.875Z,30.331
2022-11-24T18:45:16.789Z,30.326
2022-11-24T18:50:16.945Z,30.325
2022-11-24T18:55:16.954Z,30.322
2022-11-24T19:00:17.079Z,30.319
2022-11-24T19:05:16.936Z,30.316
2022-11-24T19:10:16.996Z,30.308
2022-11-24T19:15:16.955Z,30.308
2022-11-24T19:20:17.023Z,30.305
2022-11-24T19:25:17.040Z,30.302
2022-11-24T19:30:16.939Z,30.297
2022-11-24T19:35:17.082Z,30.296
2022-11-24T19:40:17.063Z,30.293
2022-11-24T19:45:17.123Z,30.295
2022-11-24T19:50:17.076Z,30.292
2022-11-24T19:55:17.246Z,30.293
2022-11-24T20:00:17.121Z,30.291
2022-11-24T20:05:17.014Z,30.293
2022-11-24T20:10:17.141Z,30.291
2022-11-24T20:15:17.162Z,30.293
2022-11-24T20:20:17.190Z,30.295
2022-11-24T20:25:17.157Z,30.293
2022-11-24T20:30:17.148Z,30.293
2022-11-24T20:35:18.479Z,30.293
2022-11-24T20:40:17.173Z,30.291
2022-11-24T20:45:17.191Z,30.292
2022-11-24T20:50:17.251Z,30.294
2022-11-24T20:55:17.320Z,30.293
2022-11-24T21:00:17.273Z,30.292
2022-11-24T21:05:17.229Z,30.294
2022-11-24T21:10:17.330Z,30.291
2022-11-24T21:15:17.305Z,30.293
2022-11-24T21:20:17.288Z,30.289
2022-11-24T21:25:17.248Z,30.285
2022-11-24T21:30:17.421Z,30.284
2022-11-24T21:35:17.351Z,30.283
2022-11-24T21:40:17.249Z,30.280
2022-11-24T21:45:17.286Z,30.280
2022-11-24T21:50:17.268Z,30.276
2022-11-24T21:55:17.572Z,30.267
2022-11-24T22:00:17.255Z,30.265
2022-11-24T22:05:17.390Z,30.262
2022-11-24T22:10:17.345Z,30.258
2022-11-24T22:15:17.342Z,30.255
2022-11-24T22:20:17.374Z,30.253
2022-11-24T22:25:15.373Z,30.254
2022-11-24T22:30:15.376Z,30.253
2022-11-24T22:35:15.376Z,30.258
2022-11-24T22:40:15.655Z,30.255
2022-11-24T22:45:15.423Z,30.256
2022-11-24T22:50:15.474Z,30.256
2022-11-24T22:55:15.447Z,30.256
2022-11-24T23:00:15.535Z,30.255
2022-11-24T23:05:20.498Z,30.254
2022-11-24T23:10:15.705Z,30.251
2022-11-24T23:15:15.555Z,30.254
2022-11-24T23:20:15.699Z,30.254
2022-11-24T23:25:15.529Z,30.251
2022-11-24T23:30:15.556Z,30.251
2022-11-24T23:35:15.708Z,30.251
2022-11-24T23:40:15.584Z,30.254
2022-11-24T23:45:15.587Z,30.249
2022-11-24T23:50:15.571Z,30.253
2022-11-24T23:55:18.730Z,30.255
